createdAt,value
2019-02-28T00:02:53.924Z,34.15
2019-02-28T00:07:57.665Z,31.00
2019-02-28T00:13:01.235Z,27.73
2019-02-28T00:18:05.195Z,27.90
2019-02-28T00:23:08.796Z,26.33
2019-02-28T00:28:12.327Z,25.50
2019-02-28T00:33:16.197Z,24.77
2019-02-28T00:38:19.715Z,28.47
2019-02-28T00:43:25.144Z,26.77
2019-02-28T00:48:28.528Z,26.57
2019-02-28T00:53:32.124Z,26.33
2019-02-28T00:58:35.647Z,26.02
2019-02-28T01:03:39.214Z,27.70
2019-02-28T01:08:42.761Z,26.42
2019-02-28T01:13:46.321Z,24.18
2019-02-28T01:18:49.856Z,24.23
2019-02-28T01:23:53.446Z,22.15
2019-02-28T01:29:01.520Z,23.92
2019-02-28T01:34:02.666Z,21.57
2019-02-28T01:39:06.516Z,22.15
2019-02-28T01:44:10.100Z,22.95
2019-02-28T01:49:13.652Z,20.88
2019-02-28T01:54:17.247Z,20.68
2019-02-28T01:59:21.613Z,21.53
2019-02-28T02:04:25.836Z,19.65
2019-02-28T02:09:29.387Z,18.90
2019-02-28T02:14:32.958Z,18.17
2019-02-28T02:19:36.508Z,20.85
2019-02-28T02:24:40.079Z,22.15
2019-02-28T02:29:43.618Z,21.17
2019-02-28T02:34:47.766Z,21.35
2019-02-28T02:39:51.355Z,22.13
2019-02-28T02:44:54.931Z,21.55
2019-02-28T02:49:58.460Z,18.07
2019-02-28T02:55:02.055Z,16.87
2019-02-28T03:00:13.327Z,16.77
2019-02-28T03:05:14.809Z,15.03
2019-02-28T03:10:19.765Z,15.18
2019-02-28T03:15:27.048Z,13.55
2019-02-28T03:20:28.871Z,13.25
2019-02-28T03:25:32.468Z,15.95
2019-02-28T03:30:36.004Z,14.13
2019-02-28T03:35:43.315Z,14.87
2019-02-28T03:40:44.843Z,13.93
2019-02-28T03:45:48.413Z,16.37
2019-02-28T03:50:55.191Z,15.58
2019-02-28T03:55:57.278Z,16.30
2019-02-28T04:01:00.837Z,15.08
2019-02-28T04:06:05.098Z,15.02
2019-02-28T04:11:08.631Z,14.50
2019-02-28T04:16:12.196Z,17.65
2019-02-28T04:21:15.714Z,16.00
2019-02-28T04:26:19.296Z,18.90
2019-02-28T04:31:22.808Z,13.28
2019-02-28T04:36:26.416Z,16.55
2019-02-28T04:41:32.530Z,14.23
2019-02-28T04:46:35.221Z,15.55
2019-02-28T04:51:40.225Z,14.63
2019-02-28T04:56:45.516Z,16.95
2019-02-28T05:01:49.299Z,15.65
2019-02-28T05:06:55.323Z,14.07
2019-02-28T05:11:58.163Z,14.70
2019-02-28T05:17:01.828Z,15.60
2019-02-28T05:22:05.373Z,13.38
2019-02-28T05:27:08.958Z,14.35
2019-02-28T05:32:12.925Z,18.30
2019-02-28T05:37:16.511Z,16.55
2019-02-28T05:42:23.429Z,16.87
2019-02-28T05:47:26.090Z,13.85
2019-02-28T05:52:30.463Z,13.65
2019-02-28T05:57:34.934Z,13.22
2019-02-28T06:02:38.492Z,13.18
2019-02-28T06:07:42.076Z,12.88
2019-02-28T06:12:45.604Z,13.68
2019-02-28T06:17:49.131Z,12.40
2019-02-28T06:22:52.745Z,11.35
2019-02-28T06:27:56.289Z,13.48
2019-02-28T06:32:59.858Z,12.23
2019-02-28T06:38:06.583Z,11.97
2019-02-28T06:43:08.721Z,11.12
2019-02-28T06:48:12.273Z,10.95
2019-02-28T06:53:15.849Z,11.07
2019-02-28T06:58:19.396Z,11.85
2019-02-28T07:03:23.002Z,11.97
2019-02-28T07:08:28.967Z,12.35
2019-02-28T07:13:31.832Z,11.40
2019-02-28T07:18:35.397Z,11.38
2019-02-28T07:23:38.998Z,10.88
2019-02-28T07:28:42.551Z,11.48
2019-02-28T07:33:46.144Z,10.70
2019-02-28T07:38:49.670Z,11.97
2019-02-28T07:43:53.233Z,11.43
2019-02-28T07:48:56.795Z,12.65
2019-02-28T07:54:01.614Z,13.48
2019-02-28T07:59:06.265Z,13.22
2019-02-28T08:04:09.940Z,13.60
2019-02-28T08:09:22.289Z,14.50
2019-02-28T08:14:25.823Z,15.43
2019-02-28T08:19:29.360Z,17.23
2019-02-28T08:24:35.845Z,19.35
2019-02-28T08:29:38.197Z,19.57
2019-02-28T08:34:41.786Z,20.80
2019-02-28T08:39:45.349Z,20.25
2019-02-28T08:44:48.940Z,22.60
2019-02-28T08:49:52.488Z,22.98
2019-02-28T08:54:56.729Z,24.92
2019-02-28T09:00:00.253Z,28.42
2019-02-28T09:05:04.154Z,33.75
2019-02-28T09:10:12.580Z,34.15
2019-02-28T09:31:56.137Z,33.18
2019-02-28T09:36:59.543Z,32.42
2019-02-28T09:42:03.136Z,30.12
2019-02-28T09:47:07.186Z,31.42
2019-02-28T09:52:10.777Z,28.07
2019-02-28T09:57:15.406Z,31.17
2019-02-28T10:02:19.735Z,30.00
2019-02-28T10:07:26.309Z,29.30
2019-02-28T10:12:28.557Z,27.45
2019-02-28T10:17:32.140Z,27.02
2019-02-28T10:22:35.661Z,25.37
2019-02-28T10:27:39.257Z,24.63
2019-02-28T10:32:43.388Z,24.43
2019-02-28T10:37:48.046Z,23.30
2019-02-28T10:42:51.568Z,22.22
2019-02-28T10:47:55.160Z,23.50
2019-02-28T10:53:04.219Z,19.27
2019-02-28T10:58:04.942Z,21.05
2019-02-28T11:03:08.497Z,20.48
2019-02-28T11:08:16.688Z,21.03
2019-02-28T11:13:21.255Z,19.92
2019-02-28T11:18:24.829Z,19.80
2019-02-28T11:23:28.390Z,19.27
2019-02-28T11:28:31.947Z,16.07
2019-02-28T11:33:36.534Z,19.00
2019-02-28T11:38:40.833Z,19.70
2019-02-28T11:43:44.394Z,18.67
2019-02-28T11:48:48.038Z,19.50
2019-02-28T11:53:51.638Z,19.25
2019-02-28T11:58:55.155Z,18.07
2019-02-28T12:03:58.773Z,17.13
2019-02-28T12:09:02.310Z,17.87
2019-02-28T12:14:06.392Z,18.12
2019-02-28T12:19:12.516Z,16.13
2019-02-28T12:24:15.766Z,15.25
2019-02-28T12:29:19.297Z,14.33
2019-02-28T12:34:22.887Z,13.63
2019-02-28T12:39:26.472Z,13.78
2019-02-28T12:44:30.106Z,15.80
2019-02-28T12:49:33.633Z,16.32
2019-02-28T12:54:37.202Z,15.65
2019-02-28T12:59:41.839Z,15.38
2019-02-28T13:04:46.061Z,16.82
2019-02-28T13:09:51.445Z,16.15
2019-02-28T13:14:54.896Z,15.13
2019-02-28T13:19:58.412Z,15.85
2019-02-28T13:25:02.014Z,18.13
2019-02-28T13:30:14.588Z,18.15
2019-02-28T13:35:31.888Z,17.07
2019-02-28T13:40:35.466Z,20.37
2019-02-28T13:45:39.035Z,18.60
2019-02-28T13:50:42.735Z,19.07
2019-02-28T13:55:46.458Z,18.47
2019-02-28T14:00:50.023Z,18.40
2019-02-28T14:05:53.630Z,18.15
2019-02-28T14:10:57.189Z,18.02
2019-02-28T14:16:01.204Z,18.62
2019-02-28T14:21:04.759Z,22.53
2019-02-28T14:26:11.438Z,17.90
2019-02-28T14:31:13.655Z,35.03
2019-02-28T14:36:17.539Z,17.00
2019-02-28T14:41:21.101Z,19.30
2019-02-28T14:46:24.721Z,18.25
2019-02-28T14:51:28.618Z,19.60
2019-02-28T14:56:33.059Z,23.00
2019-02-28T15:01:36.604Z,23.22
2019-02-28T15:06:40.189Z,43.23
2019-02-28T15:11:47.106Z,24.72
2019-02-28T15:16:49.027Z,23.18
2019-02-28T15:21:52.550Z,25.97
2019-02-28T15:26:56.531Z,24.50
2019-02-28T15:32:00.096Z,25.68
2019-02-28T15:37:03.676Z,24.90
2019-02-28T15:42:08.199Z,29.98
2019-02-28T15:47:12.709Z,30.70
2019-02-28T15:52:16.255Z,29.92
2019-02-28T15:57:19.892Z,28.30
2019-02-28T16:02:23.450Z,27.85
2019-02-28T16:07:32.367Z,27.37
2019-02-28T16:12:32.914Z,48.10
2019-02-28T16:17:37.315Z,29.35
2019-02-28T16:22:40.937Z,34.23
2019-02-28T16:27:44.593Z,32.93
2019-02-28T16:32:49.089Z,42.03
2019-02-28T16:37:53.596Z,32.17
2019-02-28T16:42:57.162Z,36.23
2019-02-28T16:48:03.044Z,30.48
2019-02-28T16:53:06.780Z,27.15
2019-02-28T16:58:10.411Z,31.93
2019-02-28T17:03:15.866Z,56.65
2019-02-28T17:08:19.533Z,34.33
2019-02-28T17:13:31.442Z,32.55
2019-02-28T17:18:36.793Z,33.37
2019-02-28T17:23:40.345Z,34.00
2019-02-28T17:28:49.828Z,39.95
2019-02-28T17:38:56.868Z,30.57
2019-02-28T17:44:26.305Z,33.40
2019-02-28T17:49:33.074Z,33.13
2019-02-28T17:54:40.017Z,37.42
2019-02-28T17:59:58.793Z,36.35
2019-02-28T18:05:33.749Z,32.23
2019-02-28T18:11:08.626Z,33.45
2019-02-28T18:16:21.512Z,36.07
2019-02-28T18:21:46.857Z,35.80
2019-02-28T18:27:11.694Z,32.88
2019-02-28T18:32:14.710Z,33.60
2019-02-28T18:37:20.710Z,33.38
2019-02-28T18:42:23.989Z,34.90
2019-02-28T18:47:27.731Z,31.77
2019-02-28T18:52:31.482Z,33.02
2019-02-28T18:57:35.259Z,32.53
2019-02-28T19:02:38.940Z,32.00
2019-02-28T19:07:42.678Z,33.85
2019-02-28T19:12:46.288Z,35.00
2019-02-28T19:17:50.036Z,38.17
2019-02-28T19:22:53.778Z,42.13
2019-02-28T19:27:57.556Z,41.65
2019-02-28T19:33:01.300Z,41.15
2019-02-28T19:38:05.448Z,40.33
2019-02-28T19:43:09.263Z,43.90
2019-02-28T19:48:13.667Z,43.50
2019-02-28T19:53:19.201Z,43.17
2019-02-28T19:58:23.060Z,41.53
2019-02-28T20:03:26.812Z,42.33
2019-02-28T20:08:30.437Z,42.60
2019-02-28T20:13:35.452Z,42.27
2019-02-28T20:18:39.221Z,43.55
2019-02-28T20:23:42.911Z,44.30
2019-02-28T20:28:46.605Z,43.52
2019-02-28T20:33:50.215Z,47.48
2019-02-28T20:38:53.915Z,50.20
2019-02-28T20:43:58.988Z,50.15
2019-02-28T20:49:24.524Z,49.63
2019-02-28T20:54:28.587Z,48.40
2019-02-28T20:59:32.161Z,48.52
2019-02-28T21:04:36.377Z,44.90
2019-02-28T21:09:44.996Z,56.30
2019-02-28T21:14:45.388Z,60.23
2019-02-28T21:19:49.025Z,62.55
2019-02-28T21:24:52.685Z,69.27
2019-02-28T21:29:56.234Z,85.10
2019-02-28T21:34:59.897Z,60.63
2019-02-28T21:40:04.255Z,67.87
2019-02-28T21:45:11.008Z,72.03
2019-02-28T21:50:16.352Z,68.22
2019-02-28T21:55:19.986Z,71.40
2019-02-28T22:00:25.973Z,75.42
2019-02-28T22:05:29.670Z,73.02
2019-02-28T22:10:33.344Z,62.33
2019-02-28T22:15:36.966Z,72.65
2019-02-28T22:20:40.540Z,68.60
2019-02-28T22:25:44.223Z,75.00
2019-02-28T22:30:49.353Z,76.42
2019-02-28T22:35:54.575Z,70.52
2019-02-28T22:40:58.203Z,69.82
2019-02-28T22:46:01.850Z,70.00
2019-02-28T22:51:05.444Z,70.72
2019-02-28T22:56:09.053Z,68.50
2019-02-28T23:01:15.528Z,75.57
2019-02-28T23:06:19.176Z,75.17
2019-02-28T23:11:22.804Z,70.35
2019-02-28T23:16:26.417Z,73.05
2019-02-28T23:21:30.013Z,72.42
2019-02-28T23:26:36.690Z,69.32
2019-02-28T23:31:55.572Z,72.08
2019-02-28T23:36:59.214Z,66.50
2019-02-28T23:42:02.905Z,66.25
2019-02-28T23:47:06.632Z,69.47
2019-02-28T23:52:10.234Z,67.50
2019-02-28T23:57:13.857Z,61.95
